createdAt,value
2017-12-14T00:01:36.035Z,98.10
2017-12-14T00:04:03.370Z,98.10
2017-12-14T00:06:29.945Z,98.10
2017-12-14T00:08:56.466Z,98.40
2017-12-14T00:11:23.696Z,98.10
2017-12-14T00:13:50.241Z,98.10
2017-12-14T00:16:16.698Z,98.10
2017-12-14T00:18:45.135Z,98.00
2017-12-14T00:21:12.896Z,98.00
2017-12-14T00:23:39.388Z,98.00
2017-12-14T00:26:05.793Z,97.90
2017-12-14T00:28:32.319Z,97.90
2017-12-14T00:30:58.714Z,97.90
2017-12-14T00:33:25.250Z,97.80
2017-12-14T00:35:52.856Z,97.80
2017-12-14T00:38:20.912Z,97.70
2017-12-14T00:40:49.543Z,97.80
2017-12-14T00:43:19.414Z,97.80
2017-12-14T00:45:48.201Z,97.80
2017-12-14T00:48:17.231Z,97.80
2017-12-14T00:50:44.326Z,97.80
2017-12-14T00:53:10.892Z,97.70
2017-12-14T00:55:37.319Z,97.70
2017-12-14T00:58:03.913Z,97.60
2017-12-14T01:00:30.456Z,97.70
2017-12-14T01:02:56.893Z,97.70
2017-12-14T01:05:23.238Z,97.60
2017-12-14T01:07:49.651Z,97.70
2017-12-14T01:10:16.104Z,97.70
2017-12-14T01:12:42.453Z,97.70
2017-12-14T01:15:08.870Z,97.90
2017-12-14T01:17:35.483Z,97.80
2017-12-14T01:20:02.149Z,97.90
2017-12-14T01:22:28.682Z,97.90
2017-12-14T01:24:56.121Z,98.00
2017-12-14T01:27:23.357Z,98.00
2017-12-14T01:29:50.953Z,98.10
2017-12-14T01:32:17.490Z,98.10
2017-12-14T01:34:44.233Z,98.10
2017-12-14T01:37:10.836Z,98.20
2017-12-14T01:39:37.521Z,98.10
2017-12-14T01:42:04.011Z,98.10
2017-12-14T01:44:30.509Z,98.10
2017-12-14T01:46:57.058Z,98.10
2017-12-14T01:49:23.718Z,98.00
2017-12-14T01:51:50.317Z,98.00
2017-12-14T01:54:16.950Z,98.00
2017-12-14T01:56:43.651Z,98.00
2017-12-14T01:59:10.078Z,98.10
2017-12-14T02:01:36.454Z,98.10
2017-12-14T02:04:02.786Z,98.20
2017-12-14T02:06:29.234Z,98.20
2017-12-14T02:08:55.599Z,98.20
2017-12-14T02:11:21.992Z,98.20
2017-12-14T02:13:48.364Z,98.20
2017-12-14T02:16:15.103Z,98.20
2017-12-14T02:18:41.531Z,98.30
2017-12-14T02:21:08.880Z,98.30
2017-12-14T02:23:35.313Z,98.30
2017-12-14T02:26:01.676Z,98.30
2017-12-14T02:28:28.083Z,98.30
2017-12-14T02:30:54.511Z,98.40
2017-12-14T02:33:21.048Z,98.40
2017-12-14T02:35:47.480Z,98.40
2017-12-14T02:38:13.872Z,98.40
2017-12-14T02:40:40.263Z,98.40
2017-12-14T02:43:06.679Z,98.40
2017-12-14T02:45:33.111Z,98.40
2017-12-14T02:47:59.546Z,98.40
2017-12-14T02:50:26.386Z,98.40
2017-12-14T02:52:52.932Z,98.40
2017-12-14T02:55:19.394Z,98.30
2017-12-14T02:57:47.029Z,98.30
2017-12-14T03:00:13.652Z,98.30
2017-12-14T03:02:40.324Z,98.30
2017-12-14T03:05:07.199Z,98.20
2017-12-14T03:07:33.667Z,98.20
2017-12-14T03:10:00.124Z,98.50
2017-12-14T03:12:26.657Z,98.20
2017-12-14T03:14:53.701Z,98.20
2017-12-14T03:17:20.571Z,98.20
2017-12-14T03:19:47.640Z,98.20
2017-12-14T03:22:14.460Z,98.20
2017-12-14T03:24:41.162Z,98.20
2017-12-14T03:27:07.635Z,98.60
2017-12-14T03:29:34.526Z,98.30
2017-12-14T03:32:00.887Z,98.30
2017-12-14T03:34:27.517Z,98.30
2017-12-14T03:36:53.966Z,98.30
2017-12-14T03:39:20.324Z,98.30
2017-12-14T03:41:46.745Z,98.30
2017-12-14T03:44:13.102Z,98.30
2017-12-14T03:46:39.511Z,98.30
2017-12-14T03:49:05.909Z,98.30
2017-12-14T03:51:32.405Z,98.20
2017-12-14T03:53:58.823Z,98.30
2017-12-14T03:56:25.682Z,98.30
2017-12-14T03:58:52.007Z,98.30
2017-12-14T04:01:18.474Z,98.40
2017-12-14T04:03:45.183Z,98.40
2017-12-14T04:06:11.514Z,98.40
2017-12-14T04:08:40.640Z,98.40
2017-12-14T04:11:07.815Z,98.50
2017-12-14T04:13:34.205Z,98.50
2017-12-14T04:16:00.703Z,98.50
2017-12-14T04:18:27.440Z,98.50
2017-12-14T04:20:53.835Z,98.60
2017-12-14T04:23:20.571Z,98.70
2017-12-14T04:25:47.008Z,98.70
2017-12-14T04:28:13.481Z,98.70
2017-12-14T04:30:39.998Z,98.70
2017-12-14T04:33:06.418Z,98.70
2017-12-14T04:35:32.852Z,98.70
2017-12-14T04:37:59.199Z,98.80
2017-12-14T04:40:25.955Z,98.80
2017-12-14T04:42:52.345Z,98.80
2017-12-14T04:48:15.712Z,98.70
2017-12-14T04:50:42.397Z,98.80
2017-12-14T04:53:09.092Z,98.80
2017-12-14T04:55:37.619Z,98.80
2017-12-14T04:58:04.850Z,98.90
2017-12-14T05:00:31.423Z,98.90
2017-12-14T05:02:57.888Z,99.00
2017-12-14T05:05:24.321Z,99.00
2017-12-14T05:07:51.041Z,99.00
2017-12-14T05:10:17.658Z,99.00
2017-12-14T05:12:44.275Z,99.10
2017-12-14T05:15:10.878Z,99.10
2017-12-14T05:17:37.311Z,99.10
2017-12-14T05:20:04.291Z,99.20
2017-12-14T05:22:30.768Z,99.30
2017-12-14T05:24:57.204Z,99.40
2017-12-14T05:27:23.745Z,99.40
2017-12-14T05:29:50.930Z,99.40
2017-12-14T05:32:17.625Z,99.40
2017-12-14T05:34:44.228Z,99.40
2017-12-14T05:37:10.860Z,99.40
2017-12-14T05:39:37.820Z,99.40
2017-12-14T05:42:04.236Z,99.50
2017-12-14T05:44:32.007Z,99.50
2017-12-14T05:46:58.568Z,99.40
2017-12-14T05:49:25.065Z,99.40
2017-12-14T05:51:51.841Z,99.40
2017-12-14T05:54:18.323Z,99.40
2017-12-14T05:56:45.684Z,99.50
2017-12-14T05:59:12.246Z,99.40
2017-12-14T06:01:38.738Z,99.50
2017-12-14T06:04:05.242Z,99.40
2017-12-14T06:06:32.638Z,99.30
2017-12-14T06:08:59.437Z,99.30
2017-12-14T06:11:26.110Z,99.30
2017-12-14T06:13:52.555Z,99.30
2017-12-14T06:16:19.132Z,99.20
2017-12-14T06:18:46.417Z,99.20
2017-12-14T06:21:13.964Z,99.10
2017-12-14T06:23:40.740Z,99.10
2017-12-14T06:26:07.351Z,99.10
2017-12-14T06:28:33.733Z,99.10
2017-12-14T06:31:00.395Z,99.10
2017-12-14T06:33:26.991Z,99.00
2017-12-14T06:35:53.363Z,98.90
2017-12-14T06:38:19.833Z,98.90
2017-12-14T06:40:46.403Z,98.90
2017-12-14T06:43:12.804Z,98.80
2017-12-14T06:45:39.323Z,98.70
2017-12-14T06:48:05.825Z,98.70
2017-12-14T06:50:32.351Z,98.60
2017-12-14T06:52:58.793Z,98.70
2017-12-14T06:55:25.365Z,98.60
2017-12-14T06:57:53.026Z,98.60
2017-12-14T07:00:20.108Z,98.40
2017-12-14T07:02:47.634Z,98.30
2017-12-14T07:05:14.347Z,98.20
2017-12-14T07:07:40.807Z,98.20
2017-12-14T07:10:07.341Z,98.30
2017-12-14T07:12:34.578Z,98.20
2017-12-14T07:15:01.054Z,98.20
2017-12-14T07:17:27.508Z,98.20
2017-12-14T07:19:53.977Z,98.10
2017-12-14T07:22:20.804Z,98.10
2017-12-14T07:24:47.373Z,98.00
2017-12-14T07:27:13.841Z,98.10
2017-12-14T07:29:40.291Z,98.00
2017-12-14T07:32:06.762Z,97.90
2017-12-14T07:34:34.166Z,98.20
2017-12-14T07:37:01.280Z,97.80
2017-12-14T07:39:28.425Z,97.40
2017-12-14T07:41:55.087Z,97.20
2017-12-14T07:44:27.502Z,97.10
2017-12-14T07:47:06.042Z,96.80
2017-12-14T07:49:32.469Z,96.60
2017-12-14T07:51:59.010Z,96.50
2017-12-14T07:54:25.496Z,96.50
2017-12-14T07:56:52.137Z,96.50
2017-12-14T07:59:19.053Z,96.40
2017-12-14T08:01:45.648Z,96.50
2017-12-14T08:04:12.221Z,96.30
2017-12-14T08:06:38.711Z,96.30
2017-12-14T08:09:05.250Z,96.30
2017-12-14T08:11:31.766Z,96.30
2017-12-14T08:13:58.992Z,96.20
2017-12-14T08:16:25.580Z,96.50
2017-12-14T08:18:52.305Z,96.10
2017-12-14T08:21:18.964Z,95.90
2017-12-14T08:23:45.545Z,95.80
2017-12-14T08:26:12.814Z,95.70
2017-12-14T08:28:39.374Z,95.60
2017-12-14T08:31:05.946Z,95.60
2017-12-14T08:33:32.448Z,95.30
2017-12-14T08:35:58.920Z,95.30
2017-12-14T08:38:25.569Z,95.10
2017-12-14T08:40:52.056Z,95.00
2017-12-14T08:43:18.604Z,95.00
2017-12-14T08:48:18.411Z,94.90
2017-12-14T08:50:45.102Z,95.00
2017-12-14T08:53:11.704Z,94.80
2017-12-14T08:55:38.384Z,94.90
2017-12-14T08:58:05.664Z,94.90
2017-12-14T09:00:32.895Z,94.80
2017-12-14T09:03:01.141Z,94.40
2017-12-14T09:05:27.995Z,94.50
2017-12-14T09:07:56.294Z,94.40
2017-12-14T09:10:23.634Z,94.40
2017-12-14T09:12:51.222Z,94.60
2017-12-14T09:15:18.232Z,94.70
2017-12-14T09:17:45.036Z,94.70
2017-12-14T09:20:11.503Z,94.50
2017-12-14T09:22:39.805Z,94.60
2017-12-14T09:25:07.058Z,94.40
2017-12-14T09:27:35.620Z,94.60
2017-12-14T09:30:02.293Z,94.10
2017-12-14T09:32:28.779Z,94.10
2017-12-14T09:34:55.234Z,93.90
2017-12-14T09:37:21.751Z,93.90
2017-12-14T09:39:48.246Z,93.70
2017-12-14T09:42:14.914Z,93.80
2017-12-14T09:44:41.756Z,93.90
2017-12-14T09:47:10.175Z,93.70
2017-12-14T09:49:43.438Z,93.60
2017-12-14T09:52:10.072Z,93.70
2017-12-14T09:54:36.807Z,94.10
2017-12-14T09:57:04.997Z,93.80
2017-12-14T09:59:31.817Z,93.70
2017-12-14T10:01:59.000Z,93.80
2017-12-14T10:04:25.405Z,93.80
2017-12-14T10:06:52.144Z,94.00
2017-12-14T10:09:19.624Z,94.10
2017-12-14T10:11:47.196Z,94.00
2017-12-14T10:14:13.627Z,93.90
2017-12-14T10:16:40.914Z,93.80
2017-12-14T10:19:07.992Z,94.00
2017-12-14T10:21:34.495Z,93.80
2017-12-14T10:24:01.012Z,93.70
2017-12-14T10:26:27.858Z,93.70
2017-12-14T10:28:54.390Z,93.60
2017-12-14T10:31:20.945Z,93.70
2017-12-14T10:33:47.530Z,93.40
2017-12-14T10:36:14.175Z,93.40
2017-12-14T10:38:40.685Z,93.40
2017-12-14T10:41:07.427Z,93.50
2017-12-14T10:43:34.170Z,93.30
2017-12-14T10:46:00.929Z,93.30
2017-12-14T10:48:28.494Z,93.50
2017-12-14T10:50:55.616Z,93.20
2017-12-14T10:53:22.064Z,93.10
2017-12-14T10:55:50.257Z,93.10
2017-12-14T10:58:17.260Z,93.20
2017-12-14T11:00:50.819Z,93.30
2017-12-14T11:03:18.833Z,92.60
2017-12-14T11:05:45.692Z,92.80
2017-12-14T11:08:13.497Z,92.90
2017-12-14T11:10:39.991Z,92.90
2017-12-14T11:13:06.576Z,92.80
2017-12-14T11:15:33.089Z,92.80
2017-12-14T11:17:59.619Z,93.10
2017-12-14T11:20:26.795Z,92.00
2017-12-14T11:22:53.256Z,92.00
2017-12-14T11:25:19.868Z,91.80
2017-12-14T11:27:46.293Z,91.80
2017-12-14T11:30:13.538Z,92.00
2017-12-14T11:32:40.294Z,92.00
2017-12-14T11:35:06.646Z,92.20
2017-12-14T11:37:32.996Z,91.90
2017-12-14T11:39:59.482Z,92.00
2017-12-14T11:42:26.548Z,91.90
2017-12-14T11:44:53.133Z,91.90
2017-12-14T11:47:20.394Z,92.20
2017-12-14T11:49:46.849Z,92.20
2017-12-14T11:52:13.304Z,92.20
2017-12-14T11:54:39.816Z,92.10
2017-12-14T11:57:06.954Z,92.20
2017-12-14T11:59:34.150Z,92.40
2017-12-14T12:02:00.554Z,92.40
2017-12-14T12:04:26.998Z,92.30
2017-12-14T12:06:53.519Z,92.20
2017-12-14T12:09:20.117Z,92.10
2017-12-14T12:11:46.621Z,92.10
2017-12-14T12:14:14.314Z,92.10
2017-12-14T12:16:40.704Z,91.90
2017-12-14T12:19:07.253Z,91.90
2017-12-14T12:21:35.014Z,91.90
2017-12-14T12:24:01.662Z,91.90
2017-12-14T12:26:29.149Z,91.90
2017-12-14T12:28:56.112Z,91.50
2017-12-14T12:31:23.742Z,91.20
2017-12-14T12:33:50.236Z,91.30
2017-12-14T12:36:16.812Z,91.20
2017-12-14T12:38:43.505Z,91.30
2017-12-14T12:41:10.086Z,91.30
2017-12-14T12:43:38.399Z,91.30
2017-12-14T12:46:05.716Z,91.20
2017-12-14T12:48:32.960Z,91.20
2017-12-14T12:50:59.576Z,91.20
2017-12-14T12:53:26.873Z,91.20
2017-12-14T12:55:53.337Z,91.20
2017-12-14T12:58:20.005Z,91.10
2017-12-14T13:00:46.555Z,91.30
2017-12-14T13:03:13.187Z,91.40
2017-12-14T13:05:39.822Z,91.40
2017-12-14T13:08:06.368Z,91.20
2017-12-14T13:10:32.933Z,91.30
2017-12-14T13:12:59.362Z,91.40
2017-12-14T13:15:25.947Z,91.40
2017-12-14T13:17:52.654Z,91.50
2017-12-14T13:20:23.918Z,91.80
2017-12-14T13:22:50.481Z,91.70
2017-12-14T13:25:17.079Z,92.00
2017-12-14T13:27:43.585Z,92.10
2017-12-14T13:30:11.579Z,91.80
2017-12-14T13:32:38.061Z,92.10
2017-12-14T13:35:05.505Z,92.40
2017-12-14T13:37:32.155Z,92.50
2017-12-14T13:39:58.560Z,92.60
2017-12-14T13:42:25.666Z,92.30
2017-12-14T13:44:52.057Z,92.20
2017-12-14T13:47:18.993Z,92.30
2017-12-14T13:49:47.969Z,92.10
2017-12-14T13:52:14.942Z,92.10
2017-12-14T13:54:41.946Z,92.10
2017-12-14T13:57:10.011Z,92.10
2017-12-14T13:59:36.563Z,91.90
2017-12-14T14:02:03.117Z,91.70
2017-12-14T14:04:29.638Z,91.70
2017-12-14T14:06:56.117Z,91.70
2017-12-14T14:09:22.724Z,91.80
2017-12-14T14:11:49.659Z,92.00
2017-12-14T14:14:16.336Z,92.00
2017-12-14T14:16:42.850Z,92.10
2017-12-14T14:19:09.324Z,92.20
2017-12-14T14:21:36.324Z,92.40
2017-12-14T14:24:02.763Z,92.50
2017-12-14T14:26:29.530Z,92.60
2017-12-14T14:28:56.322Z,92.50
2017-12-14T14:31:23.275Z,92.60
2017-12-14T14:33:50.711Z,92.70
2017-12-14T14:36:17.186Z,92.80
2017-12-14T14:38:43.870Z,92.70
2017-12-14T14:41:11.100Z,92.70
2017-12-14T14:43:37.604Z,92.70
2017-12-14T14:46:04.994Z,92.60
2017-12-14T14:48:31.873Z,92.60
2017-12-14T14:50:59.488Z,92.40
2017-12-14T14:53:26.292Z,92.60
2017-12-14T14:55:52.802Z,92.50
2017-12-14T14:58:19.152Z,92.50
2017-12-14T15:00:46.404Z,92.60
2017-12-14T15:03:13.588Z,92.60
2017-12-14T15:05:40.519Z,92.70
2017-12-14T15:08:07.451Z,92.80
2017-12-14T15:10:35.109Z,92.80
2017-12-14T15:13:25.633Z,92.90
2017-12-14T15:15:52.394Z,92.90
2017-12-14T15:18:18.893Z,92.80
2017-12-14T15:20:45.453Z,92.80
2017-12-14T15:23:12.662Z,93.10
2017-12-14T15:25:39.038Z,93.00
2017-12-14T15:28:05.484Z,93.10
2017-12-14T15:30:32.171Z,93.30
2017-12-14T15:32:58.767Z,92.80
2017-12-14T15:35:25.402Z,92.70
2017-12-14T15:37:52.413Z,92.80
2017-12-14T15:40:18.954Z,92.70
2017-12-14T15:42:45.792Z,92.60
2017-12-14T15:45:12.463Z,92.50
2017-12-14T15:47:39.503Z,92.80
2017-12-14T15:50:05.941Z,92.70
2017-12-14T15:52:32.930Z,92.80
2017-12-14T15:54:59.634Z,93.20
2017-12-14T15:57:26.254Z,93.70
2017-12-14T15:59:53.446Z,94.10
2017-12-14T16:02:20.143Z,94.50
2017-12-14T16:04:46.835Z,94.90
2017-12-14T16:07:14.118Z,95.00
2017-12-14T16:09:40.965Z,95.20
2017-12-14T16:12:07.641Z,95.50
2017-12-14T16:14:34.234Z,95.80
2017-12-14T16:17:00.904Z,96.00
2017-12-14T16:19:28.420Z,96.20
2017-12-14T16:21:55.978Z,96.60
2017-12-14T16:24:22.540Z,96.60
2017-12-14T16:26:49.177Z,96.80
2017-12-14T16:29:16.288Z,96.90
2017-12-14T16:31:42.690Z,97.00
2017-12-14T16:34:09.879Z,97.10
2017-12-14T16:36:36.419Z,97.10
2017-12-14T16:39:03.240Z,96.80
2017-12-14T16:41:29.758Z,96.70
2017-12-14T16:43:56.507Z,96.70
2017-12-14T16:46:23.047Z,96.70
2017-12-14T16:48:49.658Z,96.70
2017-12-14T16:51:16.195Z,96.70
2017-12-14T16:53:42.755Z,96.80
2017-12-14T16:56:09.228Z,96.90
2017-12-14T16:58:36.446Z,97.10
2017-12-14T17:01:03.261Z,97.20
2017-12-14T17:03:29.794Z,97.30
2017-12-14T17:05:57.654Z,97.50
2017-12-14T17:08:24.225Z,97.50
2017-12-14T17:10:50.848Z,97.60
2017-12-14T17:13:18.190Z,97.80
2017-12-14T17:15:44.990Z,97.80
2017-12-14T17:18:11.639Z,97.80
2017-12-14T17:20:38.641Z,97.90
2017-12-14T17:23:05.626Z,98.00
2017-12-14T17:25:33.976Z,98.10
2017-12-14T17:28:00.830Z,98.20
2017-12-14T17:30:28.306Z,98.30
2017-12-14T17:32:54.865Z,98.20
2017-12-14T17:35:22.523Z,98.30
2017-12-14T17:37:49.158Z,98.20
2017-12-14T17:40:16.042Z,98.30
2017-12-14T17:42:43.017Z,98.30
2017-12-14T17:45:11.179Z,98.30
2017-12-14T17:47:38.333Z,98.30
2017-12-14T17:50:05.073Z,98.40
2017-12-14T17:52:31.592Z,98.40
2017-12-14T17:54:58.029Z,98.40
2017-12-14T17:57:24.850Z,98.40
2017-12-14T17:59:51.462Z,98.30
2017-12-14T18:02:18.511Z,98.40
2017-12-14T18:04:45.656Z,98.40
2017-12-14T18:07:12.131Z,98.40
2017-12-14T18:09:38.619Z,98.40
2017-12-14T18:12:05.151Z,98.40
2017-12-14T18:14:31.749Z,98.40
2017-12-14T18:16:58.424Z,98.30
2017-12-14T18:19:24.984Z,98.30
2017-12-14T18:21:51.378Z,98.30
2017-12-14T18:24:17.852Z,98.20
2017-12-14T18:26:44.408Z,98.10
2017-12-14T18:29:11.307Z,98.10
2017-12-14T18:31:37.854Z,98.00
2017-12-14T18:34:04.572Z,98.00
2017-12-14T18:36:31.241Z,98.00
2017-12-14T18:38:57.732Z,98.00
2017-12-14T18:41:24.225Z,98.00
2017-12-14T18:43:51.088Z,97.90
2017-12-14T18:46:17.514Z,97.90
2017-12-14T18:48:44.007Z,97.90
2017-12-14T18:51:10.545Z,97.90
2017-12-14T18:53:37.453Z,97.90
2017-12-14T18:56:05.836Z,98.10
2017-12-14T18:58:32.691Z,97.80
2017-12-14T19:00:59.351Z,97.70
2017-12-14T19:03:26.257Z,97.50
2017-12-14T19:05:53.087Z,97.40
2017-12-14T19:08:19.764Z,97.50
2017-12-14T19:10:46.399Z,97.50
2017-12-14T19:13:13.336Z,97.40
2017-12-14T19:15:41.199Z,97.30
2017-12-14T19:18:08.554Z,97.40
2017-12-14T19:20:35.029Z,97.30
2017-12-14T19:23:01.496Z,97.40
2017-12-14T19:25:28.078Z,97.40
2017-12-14T19:27:55.967Z,97.50
2017-12-14T19:30:22.511Z,97.30
2017-12-14T19:32:48.994Z,97.20
2017-12-14T19:35:15.429Z,97.20
2017-12-14T19:37:41.909Z,97.70
2017-12-14T19:40:08.954Z,97.30
2017-12-14T19:42:35.569Z,97.30
2017-12-14T19:45:02.405Z,97.40
2017-12-14T19:47:29.233Z,97.40
2017-12-14T19:49:55.741Z,97.40
2017-12-14T19:52:23.507Z,97.50
2017-12-14T19:54:50.157Z,97.40
2017-12-14T19:57:16.714Z,97.20
2017-12-14T19:59:43.849Z,97.20
2017-12-14T20:02:10.419Z,97.20
2017-12-14T20:04:36.902Z,97.00
2017-12-14T20:07:03.373Z,96.80
2017-12-14T20:09:29.837Z,96.70
2017-12-14T20:11:57.046Z,96.40
2017-12-14T20:14:23.842Z,96.40
2017-12-14T20:16:51.043Z,96.50
2017-12-14T20:19:17.893Z,96.40
2017-12-14T20:21:44.415Z,96.40
2017-12-14T20:24:13.137Z,96.40
2017-12-14T20:26:41.011Z,96.30
2017-12-14T20:29:08.939Z,96.20
2017-12-14T20:31:35.646Z,96.10
2017-12-14T20:34:04.471Z,96.10
2017-12-14T20:36:31.435Z,96.10
2017-12-14T20:39:04.092Z,96.00
2017-12-14T20:41:32.851Z,95.90
2017-12-14T20:44:07.635Z,95.70
2017-12-14T20:46:34.637Z,95.70
2017-12-14T20:49:01.128Z,95.80
2017-12-14T20:51:27.693Z,95.80
2017-12-14T20:53:55.594Z,95.80
2017-12-14T20:56:22.123Z,95.80
2017-12-14T20:58:48.850Z,96.00
2017-12-14T21:01:17.148Z,96.10
2017-12-14T21:03:43.613Z,96.20
2017-12-14T21:06:12.023Z,96.10
2017-12-14T21:08:38.539Z,96.00
2017-12-14T21:11:04.974Z,96.20
2017-12-14T21:13:31.649Z,96.20
2017-12-14T21:15:58.102Z,96.30
2017-12-14T21:18:25.072Z,96.10
2017-12-14T21:20:53.045Z,96.00
2017-12-14T21:23:21.654Z,96.10
2017-12-14T21:25:48.245Z,95.90
2017-12-14T21:28:15.017Z,95.80
2017-12-14T21:30:41.418Z,95.80
2017-12-14T21:33:07.843Z,95.90
2017-12-14T21:35:34.249Z,95.90
2017-12-14T21:38:00.651Z,95.90
2017-12-14T21:40:27.228Z,95.60
2017-12-14T21:42:53.932Z,95.60
2017-12-14T21:45:20.421Z,95.60
2017-12-14T21:47:46.806Z,95.80
2017-12-14T21:50:13.323Z,95.70
2017-12-14T21:52:39.777Z,95.90
2017-12-14T21:55:06.230Z,95.80
2017-12-14T21:57:32.654Z,95.80
2017-12-14T21:59:59.133Z,95.90
2017-12-14T22:02:25.527Z,96.00
2017-12-14T22:04:51.985Z,96.10
2017-12-14T22:07:18.510Z,96.30
2017-12-14T22:09:45.640Z,96.30
2017-12-14T22:12:12.104Z,96.20
2017-12-14T22:14:38.533Z,96.10
2017-12-14T22:17:05.042Z,96.30
2017-12-14T22:19:32.004Z,96.30
2017-12-14T22:21:58.531Z,96.30
2017-12-14T22:24:25.662Z,96.30
2017-12-14T22:26:52.128Z,96.30
2017-12-14T22:29:21.084Z,96.30
2017-12-14T22:31:47.425Z,96.30
2017-12-14T22:34:14.200Z,96.20
2017-12-14T22:36:40.594Z,96.00
2017-12-14T22:39:06.915Z,95.90
2017-12-14T22:41:33.562Z,95.90
2017-12-14T22:43:59.923Z,95.80
2017-12-14T22:46:26.326Z,95.70
2017-12-14T22:48:53.476Z,95.50
2017-12-14T22:51:19.853Z,95.50
2017-12-14T22:53:46.280Z,95.50
2017-12-14T22:56:13.527Z,95.30
2017-12-14T22:58:39.971Z,95.30
2017-12-14T23:01:06.348Z,95.30
2017-12-14T23:03:33.501Z,95.10
2017-12-14T23:05:59.937Z,95.10
2017-12-14T23:08:27.112Z,95.10
2017-12-14T23:10:53.590Z,95.10
2017-12-14T23:13:20.294Z,95.00
2017-12-14T23:15:47.566Z,95.00
2017-12-14T23:18:14.030Z,95.00
2017-12-14T23:20:40.432Z,95.10
2017-12-14T23:23:06.817Z,95.30
2017-12-14T23:25:35.419Z,95.00
2017-12-14T23:28:02.658Z,95.00
2017-12-14T23:30:29.043Z,95.00
2017-12-14T23:32:56.961Z,95.10
2017-12-14T23:35:23.848Z,95.20
2017-12-14T23:37:50.681Z,95.10
2017-12-14T23:40:17.118Z,95.10
2017-12-14T23:42:43.598Z,95.00
2017-12-14T23:45:10.837Z,94.90
2017-12-14T23:47:37.560Z,94.90
2017-12-14T23:50:05.565Z,94.80
2017-12-14T23:52:32.091Z,94.80
2017-12-14T23:54:58.766Z,94.90
2017-12-14T23:57:27.028Z,94.90
2017-12-14T23:59:54.247Z,95.00
